Waialua, Hawaii
Current Conditions -  °F | °C
As of 6:58 PM on Saturday 22 Nov 2014 (Local Time) from PHHI Reporting Station
Clear Clear  
Wind Chill: 22°   Ceiling: Unl
Heat Index: 22°   Visibility: 10mi
Dew Point: 18°   Wind: 2mph
Humidity: 81%   Direction: 240°WSW
Pressure: 30.04"   Gusts: NA
Location:  21.57°N, 158.12°W
Report Text: PHHI 230458Z AUTO 24002KT 10SM CLR 22/18 A3004 RMK AO2 SLP165 T02170184 $
Loading
Personal Weather Stations






























Interactive Weather Map New forecast layout! Learn more

10-Day Weather Forecast

Advertisements
Track Severe Weather on mobile